Terminal Aerodrome Forecast
Issued by NWS Twin Cities, MN

Home | Current Version | Previous Version | Text Only | Print | Product List | Glossary On
Versions: 1 2 3 4 5 6 7 8 9 10 11 12 13 14 15 16 17 18 19 20 21 22 23 24 25 26 27 28 29 30 31
863
FTUS43 KMPX 201720
TAFMSP
TAF
KMSP 201720Z 2018/2124 30012KT P6SM OVC010
     FM202000 29012KT P6SM BKN018 OVC025
     FM202200 29010KT P6SM BKN025
     FM210200 29009KT P6SM SCT040
     FM211000 27004KT P6SM FEW250
     FM211400 24005KT P6SM SKC=

USA.gov is the U.S. government's official web portal to all federal, state and local government web resources and services.